Time;durP1;ratioP1;P1;durP2;ratioP2;P2;SDS_P1;SDS_P2;PMS_P1;PMS_P2;Temp;Humidity;BMP_temperature;BMP_pressure;BME280_temperature;BME280_humidity;BME280_pressure;Samples;Min_cycle;Max_cycle;Signal;HPM_P1;HPM_P2
2021/11/15 00:02:32;;;;;;;64.22;33.60;;;;;;;6.76;76.09;98706.44;10126677;29;20049;-80
2021/11/15 00:07:53;;;;;;;71.20;35.80;;;;;;;6.71;75.85;98692.72;10114772;29;20056;-79
2021/11/15 00:13:15;;;;;;;66.13;35.40;;;;;;;6.70;76.08;98702.31;10127892;29;20048;-80
2021/11/15 00:18:38;;;;;;;68.45;35.55;;;;;;;6.62;75.96;98696.72;10127623;29;20473;-79
2021/11/15 00:23:59;;;;;;;71.18;36.83;;;;;;;6.57;75.69;98700.41;10127640;29;20089;-80
2021/11/15 00:29:20;;;;;;;69.22;36.15;;;;;;;6.56;76.06;98710.75;10140445;29;20045;-78
2021/11/15 00:34:41;;;;;;;79.70;39.78;;;;;;;6.55;76.40;98709.25;10126984;29;20057;-80
2021/11/15 00:40:04;;;;;;;81.97;39.70;;;;;;;6.57;76.01;98700.41;10113956;29;20049;-78
2021/11/15 00:45:25;;;;;;;74.63;38.28;;;;;;;6.52;76.35;98704.81;10126829;29;20100;-79
2021/11/15 00:50:46;;;;;;;71.80;38.28;;;;;;;6.56;76.22;98710.00;10126256;29;20037;-80
2021/11/15 00:56:08;;;;;;;70.20;37.05;;;;;;;6.55;75.95;98706.47;10111121;29;20044;-79
2021/11/15 01:01:29;;;;;;;66.20;35.10;;;;;;;6.55;75.79;98716.84;10126460;29;20055;-79
2021/11/15 01:06:52;;;;;;;60.97;33.58;;;;;;;6.48;75.21;98734.94;10125888;29;20479;-78
2021/11/15 01:12:14;;;;;;;58.70;32.67;;;;;;;6.40;74.53;98731.34;10125429;29;20044;-80
2021/11/15 01:17:36;;;;;;;58.28;32.45;;;;;;;6.35;74.05;98735.00;10125737;29;20527;-78
2021/11/15 01:22:57;;;;;;;56.75;31.73;;;;;;;6.26;73.87;98732.69;10125637;29;20064;-80
2021/11/15 01:28:19;;;;;;;51.03;30.85;;;;;;;6.20;73.58;98741.16;10125649;29;20099;-80
2021/11/15 01:33:39;;;;;;;54.55;30.65;;;;;;;6.22;73.91;98749.69;10125261;29;20381;-79
2021/11/15 01:39:01;;;;;;;52.85;31.05;;;;;;;6.16;73.37;98743.50;10124649;29;20052;-79
2021/11/15 01:44:22;;;;;;;54.50;30.35;;;;;;;6.16;73.16;98742.78;10124559;29;20053;-79
2021/11/15 01:49:43;;;;;;;50.00;27.80;;;;;;;6.14;73.77;98740.53;10111539;29;20115;-79
2021/11/15 01:55:05;;;;;;;52.25;29.23;;;;;;;6.15;73.51;98739.25;10123789;29;20067;-79
2021/11/15 02:00:32;;;;;;;52.90;28.25;;;;;;;6.15;73.32;98750.34;10124638;29;20044;-79
2021/11/15 02:05:54;;;;;;;46.05;28.13;;;;;;;6.16;73.23;98745.53;10110783;29;20048;-80
2021/11/15 02:11:16;;;;;;;47.40;27.17;;;;;;;6.23;73.33;98751.16;10123988;29;20503;-78
2021/11/15 02:16:37;;;;;;;43.45;26.02;;;;;;;6.20;72.72;98752.25;10123156;29;20044;-79
2021/11/15 02:21:58;;;;;;;46.53;26.00;;;;;;;6.20;73.18;98743.19;10122367;29;20125;-80
2021/11/15 02:27:19;;;;;;;48.03;26.27;;;;;;;6.24;73.19;98749.88;10122768;29;20049;-79
2021/11/15 02:32:40;;;;;;;42.47;24.98;;;;;;;6.25;73.08;98743.03;10122925;29;20059;-79
2021/11/15 02:38:02;;;;;;;47.17;26.60;;;;;;;6.23;72.97;98739.34;10109486;29;20048;-79
2021/11/15 02:43:23;;;;;;;51.33;28.63;;;;;;;6.27;72.59;98739.72;10135406;29;20396;-79
2021/11/15 02:48:44;;;;;;;45.55;26.83;;;;;;;6.30;72.58;98727.56;10135158;29;20076;-79
2021/11/15 02:54:08;;;;;;;47.25;27.08;;;;;;;6.29;72.71;98728.84;10122390;29;20044;-79
2021/11/15 02:59:29;;;;;;;51.05;28.25;;;;;;;6.24;72.18;98730.47;10121816;29;20052;-79
2021/11/15 03:04:50;;;;;;;54.70;29.23;;;;;;;6.22;71.83;98733.03;10121775;29;20187;-80
2021/11/15 03:10:11;;;;;;;51.88;28.45;;;;;;;6.22;72.36;98727.50;10134803;29;20124;-79
2021/11/15 03:15:35;;;;;;;56.13;29.55;;;;;;;6.25;72.42;98728.44;10121404;29;20045;-79
2021/11/15 03:21:00;;;;;;;51.03;28.77;;;;;;;6.31;72.85;98729.78;10121629;29;20072;-79
2021/11/15 03:26:22;;;;;;;55.15;29.88;;;;;;;6.26;72.59;98732.69;10121779;29;20103;-80
2021/11/15 03:31:44;;;;;;;60.80;30.90;;;;;;;6.23;72.61;98728.25;10121846;29;20053;-79
2021/11/15 03:37:05;;;;;;;56.92;31.80;;;;;;;6.14;72.87;98720.41;10114820;29;20059;-79
2021/11/15 03:42:26;;;;;;;55.45;31.10;;;;;;;6.16;72.67;98723.38;10128985;29;20040;-80
2021/11/15 03:47:49;;;;;;;57.92;30.92;;;;;;;6.00;72.89;98723.25;10128755;29;20048;-79
2021/11/15 03:53:12;;;;;;;61.05;31.48;;;;;;;5.95;73.52;98723.38;10128598;29;20040;-80
2021/11/15 03:58:33;;;;;;;60.03;31.23;;;;;;;5.90;73.66;98719.47;10141542;29;20377;-79
2021/11/15 04:03:59;;;;;;;63.53;31.42;;;;;;;5.95;73.78;98726.13;10115189;29;20044;-79
2021/11/15 04:09:20;;;;;;;64.15;33.35;;;;;;;5.94;73.65;98711.53;10141642;29;20484;-80
2021/11/15 04:14:41;;;;;;;55.40;29.40;;;;;;;5.95;73.81;98721.34;10140680;29;20116;-79
2021/11/15 04:20:03;;;;;;;62.85;31.98;;;;;;;5.90;73.59;98710.38;10127482;29;20051;-79
2021/11/15 04:25:24;;;;;;;57.25;31.55;;;;;;;5.97;73.67;98713.22;10114621;29;20045;-79
2021/11/15 04:30:45;;;;;;;55.00;29.92;;;;;;;6.03;73.70;98716.63;10113838;29;20041;-80
2021/11/15 04:36:06;;;;;;;59.05;30.75;;;;;;;6.03;73.23;98713.84;10126670;29;20044;-79
2021/11/15 04:41:27;;;;;;;58.10;31.98;;;;;;;6.00;73.38;98712.16;10139974;29;20377;-79
2021/11/15 04:46:48;;;;;;;60.25;31.90;;;;;;;5.97;73.26;98707.69;10138893;29;20165;-79
2021/11/15 04:52:10;;;;;;;55.72;29.52;;;;;;;5.94;72.85;98708.78;10126376;29;20052;-79
2021/11/15 04:57:31;;;;;;;60.13;31.77;;;;;;;5.86;73.19;98705.16;10139271;29;20111;-79
2021/11/15 05:02:52;;;;;;;55.25;30.75;;;;;;;5.81;73.21;98697.72;10113001;29;20040;-80
2021/11/15 05:08:13;;;;;;;56.17;29.40;;;;;;;5.88;73.24;98694.25;10111888;29;20053;-79
2021/11/15 05:13:34;;;;;;;62.05;31.80;;;;;;;5.91;73.32;98695.25;10124673;29;20056;-79
2021/11/15 05:18:57;;;;;;;56.28;30.65;;;;;;;5.85;73.20;98686.31;10126686;29;20052;-80
2021/11/15 05:24:18;;;;;;;59.92;30.45;;;;;;;5.85;73.62;98678.72;10123819;29;20104;-80
2021/11/15 05:29:40;;;;;;;55.40;31.02;;;;;;;5.87;73.77;98670.63;10121771;29;20056;-79
2021/11/15 05:35:02;;;;;;;59.20;30.55;;;;;;;5.94;73.24;98685.84;10124434;29;20104;-80
2021/11/15 05:40:25;;;;;;;56.30;30.38;;;;;;;5.92;73.19;98693.97;10125105;29;20044;-79
2021/11/15 05:45:47;;;;;;;53.33;27.88;;;;;;;5.83;73.28;98688.88;10125113;29;20075;-79
2021/11/15 05:51:08;;;;;;;55.05;28.05;;;;;;;5.79;73.25;98703.06;10111227;29;20461;-79
2021/11/15 05:56:29;;;;;;;55.00;29.13;;;;;;;5.71;73.16;98705.03;10110856;29;20049;-80
2021/11/15 06:01:50;;;;;;;50.92;28.65;;;;;;;5.69;72.75;98708.34;10123723;29;20048;-79
2021/11/15 06:07:13;;;;;;;53.58;27.70;;;;;;;5.71;73.46;98707.78;10110089;29;20508;-79
2021/11/15 06:12:34;;;;;;;54.72;29.30;;;;;;;5.69;72.79;98727.72;10137457;29;20056;-79
2021/11/15 06:17:56;;;;;;;52.80;28.65;;;;;;;5.53;73.06;98726.06;10136248;29;20049;-79
2021/11/15 06:23:21;;;;;;;57.42;29.38;;;;;;;5.61;73.26;98737.22;10135739;29;20051;-80
2021/11/15 06:28:46;;;;;;;52.95;26.45;;;;;;;5.59;73.10;98743.28;10148648;29;20048;-79
2021/11/15 06:34:08;;;;;;;56.28;28.73;;;;;;;5.48;73.36;98729.69;10123268;29;20496;-78
2021/11/15 06:39:29;;;;;;;57.53;28.83;;;;;;;5.54;73.59;98738.63;10109340;29;20045;-80
2021/11/15 06:44:50;;;;;;;55.05;27.77;;;;;;;5.56;73.68;98746.41;10122465;29;20044;-80
2021/11/15 06:50:15;;;;;;;61.65;30.48;;;;;;;5.41;73.65;98756.03;10122691;29;20056;-81
2021/11/15 06:55:36;;;;;;;57.92;30.50;;;;;;;5.42;73.84;98759.53;10122229;29;20068;-79
2021/11/15 07:00:58;;;;;;;62.83;29.98;;;;;;;5.56;74.08;98763.00;10108895;29;20047;-80
2021/11/15 07:06:20;;;;;;;58.88;30.42;;;;;;;5.50;73.82;98765.16;10121890;29;20149;-79
2021/11/15 07:11:41;;;;;;;59.03;30.50;;;;;;;5.42;74.05;98778.91;10108691;29;20064;-79
2021/11/15 07:17:02;;;;;;;63.92;32.70;;;;;;;5.38;74.04;98776.47;10108669;29;20049;-80
2021/11/15 07:22:24;;;;;;;53.03;28.10;;;;;;;5.46;74.11;98763.47;10121647;29;20055;-79
2021/11/15 07:27:50;;;;;;;58.53;30.63;;;;;;;5.56;73.86;98774.84;10108769;29;20048;-79
2021/11/15 07:33:12;;;;;;;57.10;30.05;;;;;;;5.60;74.09;98775.28;10108474;29;20559;-81
2021/11/15 07:38:42;;;;;;;61.60;31.88;;;;;;;5.59;73.83;98773.00;10111331;29;20068;-81
2021/11/15 07:44:03;;;;;;;58.60;31.23;;;;;;;5.60;74.00;98782.84;10153294;29;20078;-81
2021/11/15 07:49:24;;;;;;;57.13;29.33;;;;;;;5.66;73.92;98772.34;10156808;29;20051;-80
2021/11/15 07:54:47;;;;;;;61.80;31.73;;;;;;;5.70;73.55;98779.06;10147051;29;20122;-79
2021/11/15 08:00:09;;;;;;;57.03;29.48;;;;;;;5.69;73.36;98776.81;10134311;29;20124;-80
2021/11/15 08:05:33;;;;;;;62.60;31.67;;;;;;;5.63;73.47;98762.38;10147871;29;20044;-80
2021/11/15 08:10:55;;;;;;;56.92;29.48;;;;;;;5.76;74.02;98765.09;10159656;29;20048;-80
2021/11/15 08:16:16;;;;;;;57.42;30.92;;;;;;;5.81;73.41;98757.94;10146402;29;20045;-80
2021/11/15 08:21:37;;;;;;;61.80;31.83;;;;;;;5.88;73.76;98755.22;10135981;29;20048;-80
2021/11/15 08:27:02;;;;;;;60.42;30.48;;;;;;;5.97;73.69;98759.59;10139965;29;20044;-79
2021/11/15 08:32:25;;;;;;;57.08;29.20;;;;;;;6.01;73.23;98762.78;10141091;29;20147;-80
2021/11/15 08:37:58;;;;;;;57.87;28.47;;;;;;;6.05;73.43;98768.00;10153690;29;20044;-80
2021/11/15 08:43:21;;;;;;;57.58;29.92;;;;;;;6.07;73.06;98762.66;10166368;29;20400;-80
2021/11/15 08:48:43;;;;;;;55.65;29.70;;;;;;;6.04;72.84;98767.25;10140162;29;20044;-79
2021/11/15 08:54:06;;;;;;;53.53;28.85;;;;;;;6.06;72.90;98769.47;10166049;29;20040;-80
2021/11/15 08:59:28;;;;;;;56.92;30.70;;;;;;;5.98;72.50;98772.94;10153285;29;20052;-80
2021/11/15 09:04:49;;;;;;;50.25;28.42;;;;;;;6.01;73.07;98773.88;10153391;29;20055;-80
2021/11/15 09:10:11;;;;;;;56.75;30.23;;;;;;;6.09;72.45;98771.19;10152633;29;20071;-79
2021/11/15 09:15:32;;;;;;;49.97;28.50;;;;;;;6.08;72.58;98773.22;10152007;29;20051;-80
2021/11/15 09:20:54;;;;;;;57.53;30.00;;;;;;;6.04;72.41;98778.34;10151827;29;20048;-82
2021/11/15 09:26:18;;;;;;;54.03;29.50;;;;;;;6.09;72.52;98779.50;10160542;29;20048;-80
2021/11/15 09:31:39;;;;;;;52.37;27.47;;;;;;;6.21;72.98;98775.19;10156613;29;20068;-80
2021/11/15 09:37:01;;;;;;;53.75;29.05;;;;;;;6.32;72.43;98777.69;10156023;29;20124;-80
2021/11/15 09:42:23;;;;;;;49.83;27.70;;;;;;;6.28;71.51;98768.97;10180392;29;20044;-80
2021/11/15 09:48:09;;;;;;;56.88;30.50;;;;;;;6.14;71.71;98770.31;10183666;23;20035;31
2021/11/15 09:53:48;;;;;;;53.28;28.08;;;;;;;6.12;72.13;98770.84;11408430;23;20034;-83
2021/11/15 09:59:12;;;;;;;48.88;27.55;;;;;;;6.25;71.63;98764.47;10755140;23;20032;-81
2021/11/15 10:04:34;;;;;;;50.40;28.88;;;;;;;6.13;71.53;98752.94;10223695;23;20074;-81
2021/11/15 10:09:56;;;;;;;54.75;29.73;;;;;;;6.14;71.74;98756.44;10226726;23;20049;-80
2021/11/15 10:15:17;;;;;;;53.20;29.85;;;;;;;6.24;71.76;98760.22;10167758;29;20048;-80
2021/11/15 10:20:49;;;;;;;52.53;28.88;;;;;;;6.32;71.35;98755.50;10156633;29;20024;-81
2021/11/15 10:26:22;;;;;;;49.55;28.35;;;;;;;6.40;70.69;98759.06;10505457;23;20147;-80
2021/11/15 10:31:44;;;;;;;51.72;27.70;;;;;;;6.33;70.71;98765.28;10070258;29;20053;-80
2021/11/15 10:37:31;;;;;;;43.35;24.40;;;;;;;6.27;70.71;98764.69;10110922;29;20080;-80
2021/11/15 10:42:52;;;;;;;46.83;24.52;;;;;;;6.35;70.57;98756.44;10097887;29;20045;-79
2021/11/15 10:48:17;;;;;;;47.97;25.50;;;;;;;6.36;71.15;98760.69;10099646;29;20052;-80
2021/11/15 10:53:44;;;;;;;49.47;26.02;;;;;;;6.38;70.56;98755.38;10131535;29;20420;-79
2021/11/15 10:59:15;;;;;;;43.42;24.08;;;;;;;6.46;70.60;98751.34;10096719;29;20382;-78
2021/11/15 11:04:36;;;;;;;44.42;24.55;;;;;;;6.66;70.63;98741.53;10097793;29;20045;-80
2021/11/15 11:10:08;;;;;;;47.65;25.85;;;;;;;6.73;70.00;98745.63;10083619;29;20045;-79
2021/11/15 11:15:34;;;;;;;51.92;27.10;;;;;;;6.66;69.93;98741.53;10070842;29;20041;-81
2021/11/15 11:26:20;;;;;;;47.47;25.40;;;;;;;6.68;69.35;98738.22;10110701;29;20053;-79
2021/11/15 11:31:44;;;;;;;45.10;24.77;;;;;;;6.63;70.14;98739.81;10098151;29;20053;-77
2021/11/15 11:37:13;;;;;;;51.20;26.33;;;;;;;6.61;69.70;98728.53;10072684;29;20041;-79
2021/11/15 11:42:34;;;;;;;50.35;25.27;;;;;;;6.64;70.27;98727.44;10087100;29;20128;-79
2021/11/15 11:47:56;;;;;;;48.60;26.35;;;;;;;6.58;70.35;98735.91;10074575;29;20049;-80
2021/11/15 11:53:21;;;;;;;51.10;27.00;;;;;;;6.63;70.57;98730.75;10073719;29;20045;-79
2021/11/15 11:58:46;;;;;;;50.45;26.60;;;;;;;6.64;70.16;98721.88;10093507;29;20044;-79
2021/11/15 12:04:18;;;;;;;46.53;25.85;;;;;;;6.70;70.36;98727.31;10094454;29;20093;-80
2021/11/15 12:09:44;;;;;;;50.45;26.35;;;;;;;6.69;70.13;98723.78;10080641;29;20053;-79
2021/11/15 12:15:29;;;;;;;50.38;27.05;;;;;;;6.64;70.29;98723.91;10104818;29;20057;-78
2021/11/15 12:21:00;;;;;;;;;;;;;;;6.66;70.48;98719.34;10088369;29;20072;-75
2021/11/15 12:26:25;;;;;;;48.95;25.45;;;;;;;6.70;70.38;98716.19;10102616;29;19975;-79
2021/11/15 12:31:51;;;;;;;52.25;25.95;;;;;;;6.73;70.42;98718.63;10100922;29;20052;-78
2021/11/15 12:37:15;;;;;;;54.05;27.73;;;;;;;6.74;70.37;98713.81;10100630;29;20413;-80
2021/11/15 12:42:36;;;;;;;59.78;30.20;;;;;;;6.68;70.42;98716.00;10110438;29;20160;-81
2021/11/15 12:48:00;;;;;;;56.40;27.98;;;;;;;6.57;70.51;98701.16;10093793;29;20056;-79
2021/11/15 12:53:21;;;;;;;59.40;27.75;;;;;;;6.69;70.89;98707.13;10100330;29;20484;-80
2021/11/15 12:58:48;;;;;;;53.25;28.50;;;;;;;6.78;70.42;98717.00;10088313;29;20064;-78
2021/11/15 13:04:10;;;;;;;54.20;26.70;;;;;;;6.89;70.66;98708.34;10086095;29;20393;-79
2021/11/15 13:09:31;;;;;;;54.65;29.90;;;;;;;6.85;70.27;98705.94;10096266;29;20095;-79
2021/11/15 13:14:56;;;;;;;51.03;26.73;;;;;;;6.86;70.41;98693.56;10086193;29;20560;-80
2021/11/15 13:20:19;;;;;;;54.10;28.55;;;;;;;6.82;70.47;98692.41;10098098;29;20437;-79
2021/11/15 13:25:44;;;;;;;56.85;29.27;;;;;;;6.71;70.23;98687.16;10099120;29;20049;-80
2021/11/15 13:31:06;;;;;;;53.33;27.60;;;;;;;6.75;70.67;98693.09;10084794;29;20125;-79
2021/11/15 13:36:27;;;;;;;55.67;28.98;;;;;;;6.78;70.31;98692.75;10085561;29;20097;-81
2021/11/15 13:41:47;;;;;;;49.30;26.92;;;;;;;6.70;70.73;98691.22;10105443;29;20045;-76
2021/11/15 13:47:09;;;;;;;53.30;27.63;;;;;;;6.65;70.42;98708.75;10120719;29;20045;-81
2021/11/15 13:52:30;;;;;;;54.60;29.20;;;;;;;6.59;70.80;98704.13;10092351;29;20097;-79
2021/11/15 13:57:51;;;;;;;55.15;29.95;;;;;;;6.62;70.53;98704.31;10088640;29;20049;-79
2021/11/15 14:03:13;;;;;;;54.33;30.48;;;;;;;6.66;70.91;98701.91;10098425;29;20068;-79
2021/11/15 14:08:35;;;;;;;61.83;30.02;;;;;;;6.59;70.59;98704.13;10086145;29;20057;-79
2021/11/15 14:13:56;;;;;;;64.88;31.48;;;;;;;6.52;71.05;98692.97;10095224;29;20045;-78
2021/11/15 14:19:17;;;;;;;59.30;31.02;;;;;;;6.46;71.26;98695.88;10097395;29;20048;-79
2021/11/15 14:24:49;;;;;;;53.40;27.60;;;;;;;6.48;71.15;98690.53;10098531;29;20139;-76
2021/11/15 14:30:10;;;;;;;53.10;28.17;;;;;;;6.51;71.02;98677.59;10097517;29;20052;-78
2021/11/15 14:35:33;;;;;;;54.53;29.02;;;;;;;6.52;71.12;98684.63;10097577;29;20124;-78
2021/11/15 14:40:55;;;;;;;54.20;28.67;;;;;;;6.46;70.75;98687.56;10097709;29;20053;-79
2021/11/15 14:46:15;;;;;;;58.85;30.08;;;;;;;6.36;71.18;98686.56;10096514;29;20069;-79
2021/11/15 14:51:36;;;;;;;61.78;30.67;;;;;;;6.33;71.57;98684.88;10096930;29;20481;-79
2021/11/15 14:56:57;;;;;;;55.75;29.63;;;;;;;6.30;71.57;98683.19;10095838;29;20120;-78
2021/11/15 15:02:17;;;;;;;52.40;27.77;;;;;;;6.27;71.68;98685.03;10096278;29;20041;-79
2021/11/15 15:07:38;;;;;;;58.55;29.25;;;;;;;6.28;71.52;98689.28;10096495;29;20049;-79
2021/11/15 15:13:00;;;;;;;62.72;29.63;;;;;;;6.24;71.58;98677.78;10096475;29;20052;-79
2021/11/15 15:18:22;;;;;;;55.72;29.48;;;;;;;6.23;71.63;98683.88;10095762;29;20049;-78
2021/11/15 15:23:42;;;;;;;54.38;28.92;;;;;;;6.17;71.98;98691.59;10096016;29;20041;-78
2021/11/15 15:29:04;;;;;;;57.78;29.73;;;;;;;6.21;71.63;98684.44;10096295;29;20509;-79
2021/11/15 15:34:25;;;;;;;53.05;28.17;;;;;;;6.16;71.97;98688.06;10103500;29;20401;-78
2021/11/15 15:39:46;;;;;;;62.08;31.08;;;;;;;6.16;71.89;98685.31;10103766;29;20067;-79
2021/11/15 15:45:07;;;;;;;53.65;29.45;;;;;;;6.13;71.78;98685.66;10103795;29;20049;-78
2021/11/15 15:50:29;;;;;;;58.47;29.85;;;;;;;6.09;71.73;98686.00;10104929;29;20055;-77
2021/11/15 15:55:49;;;;;;;62.47;30.35;;;;;;;6.11;72.08;98682.69;10118789;29;20116;-81
2021/11/15 16:01:16;;;;;;;56.33;31.38;;;;;;;6.11;71.85;98691.00;10108496;29;20067;-77
2021/11/15 16:07:35;;;;;;;63.17;31.77;;;;;;;6.09;71.71;98697.09;10102972;29;20127;-80
2021/11/15 16:12:59;;;;;;;57.97;30.45;;;;;;;6.12;72.26;98693.22;10094606;29;20531;-79
2021/11/15 16:18:21;;;;;;;56.35;31.55;;;;;;;6.11;72.22;98699.31;10128249;29;20055;-81
2021/11/15 16:23:43;;;;;;;55.15;31.27;;;;;;;6.11;72.16;98688.97;10094210;29;20060;-79
2021/11/15 16:29:04;;;;;;;58.35;30.77;;;;;;;6.04;71.97;98689.63;10104285;29;20057;-77
2021/11/15 16:34:26;;;;;;;58.15;31.92;;;;;;;6.01;72.42;98674.09;10101555;29;20127;-77
2021/11/15 16:39:47;;;;;;;62.13;33.60;;;;;;;5.97;72.34;98677.19;10101776;29;20495;-78
2021/11/15 16:45:13;;;;;;;61.55;34.75;;;;;;;5.94;72.40;98669.97;10111235;29;20045;-81
2021/11/15 16:50:34;;;;;;;56.28;33.83;;;;;;;5.88;72.51;98671.34;10097171;29;20104;-79
2021/11/15 16:56:01;;;;;;;53.67;32.20;;;;;;;5.68;72.58;98672.84;10126393;29;20131;-81
2021/11/15 17:07:51;;;;;;;54.38;30.88;;;;;;;5.44;73.42;98682.22;12370282;23;20920;31
2021/11/15 17:19:36;;;;;;;60.35;33.00;;;;;;;5.31;73.88;98691.31;10805683;23;20120;-81
2021/11/15 17:25:04;;;;;;;54.90;31.58;;;;;;;5.31;73.85;98698.88;10140526;29;20056;-79
2021/11/15 17:30:27;;;;;;;57.85;32.28;;;;;;;5.25;73.84;98687.91;10111789;29;20048;-79
2021/11/15 17:35:48;;;;;;;52.63;32.58;;;;;;;5.15;73.78;98682.06;10125117;29;20048;-80
2021/11/15 17:41:09;;;;;;;54.80;33.17;;;;;;;5.12;74.05;98687.94;10111876;29;20048;-80
2021/11/15 17:46:30;;;;;;;54.70;31.50;;;;;;;5.05;74.30;98689.31;10111461;29;20079;-79
2021/11/15 17:52:01;;;;;;;55.47;34.08;;;;;;;5.04;74.51;98685.06;10111510;29;20481;-79
2021/11/15 17:57:33;;;;;;;55.42;31.15;;;;;;;5.02;74.48;98679.34;10126200;29;20050;-79
2021/11/15 18:02:56;;;;;;;55.35;32.00;;;;;;;5.00;74.39;98675.59;10126325;29;20084;-79
2021/11/15 18:08:17;;;;;;;63.65;34.95;;;;;;;4.95;74.59;98676.47;10123497;29;20048;-78
2021/11/15 18:13:41;;;;;;;60.83;34.72;;;;;;;4.89;74.55;98671.78;10136534;29;20056;-80
2021/11/15 18:19:09;;;;;;;61.50;33.08;;;;;;;4.89;74.96;98666.25;10124285;29;20056;-79
2021/11/15 18:24:31;;;;;;;59.20;32.72;;;;;;;4.91;75.12;98673.25;10110053;29;20045;-78
2021/11/15 18:29:51;;;;;;;52.85;31.40;;;;;;;4.87;75.46;98662.53;10122986;29;20100;-78
2021/11/15 18:35:12;;;;;;;59.53;31.60;;;;;;;4.88;74.87;98661.25;10136028;29;20044;-80
2021/11/15 18:40:38;;;;;;;54.60;30.83;;;;;;;4.82;75.05;98661.34;10136202;29;20096;-79
2021/11/15 18:45:59;;;;;;;53.42;31.02;;;;;;;4.78;74.78;98660.19;10123360;29;20044;-80
2021/11/15 18:51:20;;;;;;;54.78;32.08;;;;;;;4.77;75.14;98655.94;10135331;29;20477;-79
2021/11/15 18:56:41;;;;;;;52.88;32.15;;;;;;;4.73;75.32;98653.50;10122472;29;20507;-79
2021/11/15 19:02:03;;;;;;;56.05;33.22;;;;;;;4.66;75.38;98656.91;10134553;29;20044;-80
2021/11/15 19:07:26;;;;;;;54.28;30.70;;;;;;;4.62;75.56;98653.72;10121456;29;20404;-80
2021/11/15 19:12:50;;;;;;;54.95;30.65;;;;;;;4.58;74.95;98653.31;10122044;29;20044;-79
2021/11/15 19:18:11;;;;;;;57.05;30.92;;;;;;;4.53;75.15;98652.13;10121849;29;20456;-79
2021/11/15 19:23:37;;;;;;;55.03;32.47;;;;;;;4.54;75.55;98652.88;10123484;29;20048;-79
2021/11/15 19:28:58;;;;;;;60.78;34.13;;;;;;;4.48;75.31;98655.00;10121146;29;20057;-80
2021/11/15 19:34:20;;;;;;;62.38;33.67;;;;;;;4.45;75.45;98656.06;10121228;29;20053;-79
2021/11/15 19:39:42;;;;;;;55.53;32.42;;;;;;;4.41;75.70;98656.38;10121501;29;20044;-79
2021/11/15 19:45:03;;;;;;;57.35;32.28;;;;;;;4.42;75.73;98659.88;10121946;29;20044;-79
2021/11/15 19:50:25;;;;;;;57.83;32.90;;;;;;;4.42;75.72;98655.09;10134763;29;20045;-78
2021/11/15 19:55:46;;;;;;;57.42;35.10;;;;;;;4.39;76.08;98661.69;10121222;29;20044;-78
2021/11/15 20:01:08;;;;;;;65.47;34.50;;;;;;;4.39;75.80;98666.47;10108053;29;20045;-78
2021/11/15 20:06:30;;;;;;;62.40;33.55;;;;;;;4.35;76.03;98666.06;10120385;29;20061;-79
2021/11/15 20:11:50;;;;;;;63.60;36.60;;;;;;;4.30;76.44;98662.13;10133531;29;20052;-78
2021/11/15 20:17:11;;;;;;;64.85;34.28;;;;;;;4.28;76.04;98661.91;10123959;29;20473;-77
2021/11/15 20:22:34;;;;;;;61.53;34.53;;;;;;;4.27;76.16;98668.72;10142534;29;20132;-79
2021/11/15 20:27:55;;;;;;;65.53;37.00;;;;;;;4.22;76.25;98666.78;10140586;29;20408;-78
2021/11/15 20:33:22;;;;;;;67.40;37.45;;;;;;;4.14;76.69;98658.34;10128425;29;20127;-79
2021/11/15 20:38:49;;;;;;;63.17;35.03;;;;;;;4.12;76.39;98668.47;10140987;29;20048;-80
2021/11/15 20:44:14;;;;;;;62.20;36.30;;;;;;;4.10;76.80;98666.22;10128085;29;20052;-78
2021/11/15 20:49:35;;;;;;;65.05;34.92;;;;;;;4.10;76.86;98655.19;10127400;29;20052;-80
2021/11/15 20:54:55;;;;;;;73.60;39.72;;;;;;;4.05;76.69;98650.47;10126983;29;20045;-79
2021/11/15 21:00:23;;;;;;;66.55;35.67;;;;;;;3.99;77.02;98650.59;10113438;29;20051;-79
2021/11/15 21:05:45;;;;;;;56.55;34.22;;;;;;;3.94;77.04;98659.72;10126839;29;20041;-79
2021/11/15 21:11:10;;;;;;;68.22;38.20;;;;;;;3.93;77.02;98663.00;10139326;29;20056;-79
2021/11/15 21:16:30;;;;;;;61.95;35.17;;;;;;;3.87;76.82;98656.84;10139292;29;20044;-79
2021/11/15 21:21:52;;;;;;;65.63;37.13;;;;;;;3.88;77.50;98661.84;10138425;29;20120;-79
2021/11/15 21:27:14;;;;;;;69.55;37.22;;;;;;;3.85;77.49;98659.38;10125586;29;20040;-79
2021/11/15 21:32:40;;;;;;;70.15;38.83;;;;;;;3.85;77.12;98651.06;10113652;29;20402;-80
2021/11/15 21:38:01;;;;;;;69.57;38.13;;;;;;;3.82;77.84;98652.13;10137942;29;20053;-78
2021/11/15 21:43:22;;;;;;;67.18;38.30;;;;;;;3.84;77.50;98658.63;10125204;29;20404;-79
2021/11/15 21:48:43;;;;;;;61.83;34.63;;;;;;;3.77;77.18;98648.22;10111706;29;20127;-79
2021/11/15 21:54:04;;;;;;;67.32;36.15;;;;;;;3.68;77.52;98637.56;10124974;29;20040;-80
2021/11/15 21:59:25;;;;;;;69.55;37.83;;;;;;;3.66;76.97;98643.59;10124502;29;20044;-80
2021/11/15 22:04:47;;;;;;;65.20;36.17;;;;;;;3.63;77.76;98655.69;10137104;29;20158;-79
2021/11/15 22:10:08;;;;;;;65.55;36.30;;;;;;;3.60;77.26;98654.00;10124153;29;20061;-81
2021/11/15 22:15:30;;;;;;;58.13;33.55;;;;;;;3.52;77.23;98652.38;10123395;29;20052;-81
2021/11/15 22:20:51;;;;;;;59.65;35.58;;;;;;;3.41;77.56;98647.75;10135826;29;20095;-80
2021/11/15 22:26:13;;;;;;;61.75;34.67;;;;;;;3.35;77.03;98649.84;10123015;29;20048;-80
2021/11/15 22:31:36;;;;;;;66.73;36.63;;;;;;;3.35;77.37;98644.31;10123004;29;20055;-79
2021/11/15 22:36:57;;;;;;;59.80;34.42;;;;;;;3.36;77.61;98646.56;10122519;29;20051;-80
2021/11/15 22:42:18;;;;;;;62.30;34.35;;;;;;;3.29;77.42;98641.66;10121958;29;20120;-80
2021/11/15 22:47:39;;;;;;;59.88;34.13;;;;;;;3.23;76.99;98640.25;10135607;29;20040;-79
2021/11/15 22:53:01;;;;;;;55.67;34.33;;;;;;;3.11;77.66;98645.91;10122724;29;20507;-80
2021/11/15 22:58:22;;;;;;;67.40;37.28;;;;;;;3.10;77.59;98625.13;10121921;29;20054;-79
2021/11/15 23:03:44;;;;;;;60.55;34.22;;;;;;;3.11;77.74;98623.84;10108914;29;20076;-80
2021/11/15 23:09:05;;;;;;;63.70;35.22;;;;;;;3.04;77.26;98616.16;10135382;29;20184;-80
2021/11/15 23:14:26;;;;;;;65.60;36.03;;;;;;;3.05;77.71;98623.16;10135054;29;20071;-80
2021/11/15 23:19:48;;;;;;;64.93;36.45;;;;;;;3.08;77.42;98633.16;10121553;29;20509;-80
2021/11/15 23:25:10;;;;;;;69.07;37.65;;;;;;;3.08;77.53;98627.63;10122325;29;20044;-80
2021/11/15 23:30:32;;;;;;;64.80;37.35;;;;;;;3.16;77.30;98625.78;10121993;29;20045;-79
2021/11/15 23:35:53;;;;;;;64.57;36.38;;;;;;;3.17;77.29;98621.75;10135206;29;20052;-80
2021/11/15 23:41:16;;;;;;;62.53;34.65;;;;;;;3.16;77.16;98620.25;10121474;29;20048;-80
2021/11/15 23:46:37;;;;;;;65.85;37.90;;;;;;;3.10;78.00;98616.09;10134655;29;20041;-79
2021/11/15 23:51:59;;;;;;;66.30;36.50;;;;;;;3.11;77.59;98612.81;10124706;29;20048;-79
2021/11/15 23:57:20;;;;;;;67.50;37.72;;;;;;;3.13;77.62;98618.53;10141735;29;20705;-80
